• Join FlightAware (Why Join?)
  • Login
  • US Flag 
05:02PM EDT


 

Airport Tracker/Info


-or-


 

Live Flight TrackerFlight Track Log ✈ N3744Q ✈ 18-Apr-2014 ✈ KGIF - KMLB

Flight Track Log - Related Links

Times and Time Zones

All times are in EDT time to prevent confusion due to time zone crossing. See the N3744Q flight status page for this flight to view local times or setup timezone preferences in your user account.

Time Position Orientation Groundspeed Altitude Reporting Facility
EDT Latitude Longitude Course Direction KTS MPH feet Rate Location/Type
10:03PM 28.0833 -81.7000 90° East 101 116 1,800  Level Tampa TRACON
10:04PM 28.0833 -81.6667 90° East 115 132 2,100 480 Climbing Tampa TRACON
10:05PM 28.0833 -81.6500 90° East 122 140 2,600 660 Climbing Orlando TRACON
10:06PM 28.0833 -81.6333 90° East 102 117 3,000 180 Climbing Orlando TRACON
10:07PM 28.0833 -81.5833 90° East 132 152 3,000  Level Orlando TRACON
10:08PM 28.0833 -81.5500 90° East 131 151 3,000  Level Orlando TRACON
10:09PM 28.0833 -81.5000 90° East 126 145 3,000 -60 Level Orlando TRACON
10:10PM 28.0833 -81.4667 90° East 126 145 2,900 -60 Descending Orlando TRACON
10:11PM 28.0833 -81.4167 90° East 128 147 2,900  Level Orlando TRACON
10:12PM 28.0833 -81.3833 90° East 128 147 3,000  Climbing Orlando TRACON
10:13PM 28.0833 -81.3333 90° East 131 151 3,000  Level Orlando TRACON
10:14PM 28.0833 -81.3000 90° East 130 150 3,000  Level Orlando TRACON
10:15PM 28.0833 -81.2667 90° East 128 147 3,000  Level Orlando TRACON
10:16PM 28.1000 -81.2167 69° East 121 139 3,000  Level Orlando TRACON
10:17PM 28.1000 -81.1833 90° East 123 142 3,000  Level Orlando TRACON
10:18PM 28.1000 -81.1500 90° East 127 146 3,000  Level Orlando TRACON
10:19PM 28.1000 -81.1000 90° East 127 146 3,000  Level Orlando TRACON
10:20PM 28.1000 -81.0667 90° East 131 151 3,000  Level Orlando TRACON
10:21PM 28.1000 -81.0167 90° East 128 147 3,000  Level Orlando TRACON
10:22PM 28.1000 -80.9833 90° East 130 150 3,000  Level Orlando TRACON
10:23PM 28.1000 -80.9500 90° East 127 146 3,000 -120 Level Orlando TRACON
10:24PM 28.1000 -80.9000 90° East 131 151 2,800 -360 Descending Orlando TRACON
10:25PM 28.1000 -80.8667 90° East 126 145 2,300 -420 Descending Orlando TRACON
10:26PM 28.1000 -80.8167 90° East 123 142 2,000 -420 Descending Orlando TRACON
10:27PM 28.1000 -80.7833 90° East 121 139 1,500 -300 Descending Orlando TRACON
10:28PM 28.1000 -80.7500 90° East 117 135 1,400 -180 Descending Orlando TRACON
10:29PM 28.1000 -80.7167 90° East 121 139 1,200 -240 Descending Orlando TRACON
10:30PM 28.0833 -80.6833 120° Southeast 104 120 1,000 -240 Descending Orlando TRACON
10:31PM 28.0833 -80.6500 90° East 105 121 800 -180 Descending Orlando TRACON
10:32PM 28.0833 -80.6167 90° East 81 93 700 -120 Descending Orlando TRACON
10:34PM 28.1028 -80.6453 308° West  Level Estimated
10:41PM 28.1028 -80.6453 90° East  Level Estimated
10:42PM 28.1028 -80.6453 North  Level Estimated
10:43PM 28.1028 -80.6453 90° East  Level Estimated
10:44PM 28.1028 -80.6453 North  Level Estimated